Terminal Aerodrome Forecast
Issued by NWS

Home | Current Version | Previous Version | Graphics & Text | Print | Product List | Glossary On
Versions: 1 2 3 4 5 6 7 8 9 10 11 12
000
FTUS45 KGGW 252328
TAFSDY
TAF
KSDY 252328Z 2600/2624 05007KT P6SM SCT090
     FM260800 11004KT P6SM SKC
     FM261800 16008KT P6SM SKC=

USA.gov is the U.S. government's official web portal to all federal, state and local government web resources and services.